Time;durP1;ratioP1;P1;durP2;ratioP2;P2;SDS_P1;SDS_P2;PMS_P1;PMS_P2;Temp;Humidity;BMP_temperature;BMP_pressure;BME280_temperature;BME280_humidity;BME280_pressure;Samples;Min_cycle;Max_cycle;Signal;HPM_P1;HPM_P2
2023/08/09 00:00:57;;;;;;;;;;;;;;;16.64;53.58;100975.03;5084377;28;1192;-53
2023/08/09 00:03:22;;;;;;;;;;;;;;;16.54;53.48;100975.00;5095543;28;1047;-52
2023/08/09 00:05:48;;;;;;;;;;;;;;;16.48;53.56;100976.91;5097202;28;1018;-53
2023/08/09 00:08:13;;;;;;;;;;;;;;;16.45;53.55;100982.88;5097271;28;1043;-53
2023/08/09 00:10:38;;;;;;;;;;;;;;;16.40;53.44;100980.97;5097564;28;1150;-54
2023/08/09 00:13:04;;;;;;;;;;;;;;;17.02;54.43;100989.44;5087201;28;1606;-54
2023/08/09 00:15:29;;;;;;;;;;;;;;;17.49;54.47;100986.75;5096872;28;1054;-53
2023/08/09 00:17:55;;;;;;;;;;;;;;;17.00;54.91;100988.06;5096910;28;1104;-51
2023/08/09 00:20:20;;;;;;;;;;;;;;;16.88;54.51;100985.53;5078399;28;1905;-53
2023/08/09 00:22:46;;;;;;;;;;;;;;;16.76;54.23;100994.84;5096386;28;1181;-55
2023/08/09 00:25:11;;;;;;;;;;;;;;;16.71;54.14;100992.06;5096994;28;1047;-55
2023/08/09 00:27:37;;;;;;;;;;;;;;;16.65;53.77;100987.66;5096656;28;1035;-55
2023/08/09 00:30:04;;;;;;;;;;;;;;;16.54;53.98;100991.47;5078589;28;1190;-55
2023/08/09 00:32:30;;;;;;;;;;;;;;;16.51;53.94;100987.34;5096582;28;1220;-55
2023/08/09 00:34:56;;;;;;;;;;;;;;;16.47;53.77;100993.63;5078505;28;1333;-55
2023/08/09 00:37:21;;;;;;;;;;;;;;;16.57;54.17;100986.25;5078349;28;1086;-55
2023/08/09 00:39:47;;;;;;;;;;;;;;;17.78;54.23;100996.09;5096325;28;1906;-56
2023/08/09 00:42:12;;;;;;;;;;;;;;;17.23;55.05;100997.72;5096847;28;1166;-55
2023/08/09 00:44:38;;;;;;;;;;;;;;;16.93;54.86;100999.31;5096755;28;1134;-55
2023/08/09 00:47:05;;;;;;;;;;;;;;;16.87;54.37;100994.88;5096692;28;1058;-53
2023/08/09 00:49:31;;;;;;;;;;;;;;;16.83;54.09;100999.25;5096268;28;1289;-55
2023/08/09 00:51:56;;;;;;;;;;;;;;;16.66;54.13;100999.47;5096923;28;1208;-53
2023/08/09 00:54:22;;;;;;;;;;;;;;;16.56;53.96;100997.50;5078827;28;1038;-54
2023/08/09 00:56:47;;;;;;;;;;;;;;;16.55;53.63;100996.69;5078101;28;1007;-55
2023/08/09 00:59:13;;;;;;;;;;;;;;;16.49;53.83;100991.44;5096731;28;2063;-54
2023/08/09 01:01:38;;;;;;;;;;;;;;;16.50;53.43;100987.59;5096748;28;1074;-56
2023/08/09 01:04:04;;;;;;;;;;;;;;;16.43;53.60;100996.88;5096235;28;1146;-54
2023/08/09 01:06:32;;;;;;;;;;;;;;;16.65;54.29;100987.66;5061711;28;1150;-52
2023/08/09 01:09:09;;;;;;;;;;;;;;;17.47;54.52;100986.22;5078149;28;1207;-54
2023/08/09 01:11:53;;;;;;;;;;;;;;;17.00;54.98;100991.66;5096079;28;982;-54
2023/08/09 01:14:20;;;;;;;;;;;;;;;16.75;54.60;100984.94;5063776;28;1118;-53
2023/08/09 01:16:46;;;;;;;;;;;;;;;16.70;54.43;100990.41;5100561;28;1134;-55
2023/08/09 01:19:19;;;;;;;;;;;;;;;16.61;54.03;100986.56;5065496;28;1914;-52
2023/08/09 01:21:44;;;;;;;;;;;;;;;16.54;54.04;100985.97;5082533;28;1046;-52
2023/08/09 01:24:10;;;;;;;;;;;;;;;16.51;53.71;100992.81;5099866;28;1114;-54
2023/08/09 01:26:38;;;;;;;;;;;;;;;16.51;53.67;100991.97;5082366;28;1332;-54
2023/08/09 01:29:03;;;;;;;;;;;;;;;16.39;53.73;100990.28;5082065;28;1129;-55
2023/08/09 01:31:30;;;;;;;;;;;;;;;16.45;53.95;100987.56;5100320;28;1153;-53
2023/08/09 01:33:55;;;;;;;;;;;;;;;17.67;54.45;100996.38;5099894;28;1098;-56
2023/08/09 01:36:23;;;;;;;;;;;;;;;17.21;54.74;100988.94;5082278;28;980;-54
2023/08/09 01:38:52;;;;;;;;;;;;;;;16.90;54.75;100983.34;5100008;28;1992;-56
2023/08/09 01:41:19;;;;;;;;;;;;;;;16.79;54.52;100987.13;5082401;28;1218;-52
2023/08/09 01:43:45;;;;;;;;;;;;;;;16.71;54.17;100994.00;5100024;28;1074;-52
2023/08/09 01:46:10;;;;;;;;;;;;;;;16.64;54.26;100985.19;5081657;28;1106;-50
2023/08/09 01:48:36;;;;;;;;;;;;;;;16.59;53.96;100989.56;5081391;28;1239;-51
2023/08/09 01:51:02;;;;;;;;;;;;;;;16.48;53.91;100992.50;5095249;28;1503;-55
2023/08/09 01:53:28;;;;;;;;;;;;;;;16.49;53.55;100994.19;5088569;28;1213;-52
2023/08/09 01:55:53;;;;;;;;;;;;;;;16.48;53.60;101003.50;5073063;28;1251;-51
2023/08/09 01:58:19;;;;;;;;;;;;;;;17.48;54.72;100996.13;5079894;28;1361;-53
2023/08/09 02:00:45;;;;;;;;;;;;;;;17.24;55.02;100999.38;5071627;28;1910;-50
2023/08/09 02:03:11;;;;;;;;;;;;;;;16.92;55.14;101003.16;5099389;28;1174;-56
2023/08/09 02:05:38;;;;;;;;;;;;;;;16.85;54.60;101008.06;5081542;28;1134;-56
2023/08/09 02:08:04;;;;;;;;;;;;;;;16.72;54.22;101021.19;5099331;28;1164;-55
2023/08/09 02:10:30;;;;;;;;;;;;;;;16.67;54.18;101012.91;5080896;28;1074;-54
2023/08/09 02:12:55;;;;;;;;;;;;;;;16.60;53.86;101015.09;5098839;28;1044;-55
2023/08/09 02:15:21;;;;;;;;;;;;;;;16.49;54.09;101011.47;5081121;28;1070;-54
2023/08/09 02:17:48;;;;;;;;;;;;;;;16.55;53.40;101015.06;5099498;28;1193;-54
2023/08/09 02:20:14;;;;;;;;;;;;;;;17.09;54.58;101009.22;5094252;28;1977;-55
2023/08/09 02:22:40;;;;;;;;;;;;;;;17.50;54.56;101014.00;5094372;28;1432;-52
2023/08/09 02:25:07;;;;;;;;;;;;;;;17.01;55.12;101015.28;5098467;28;1108;-52
2023/08/09 02:27:33;;;;;;;;;;;;;;;16.86;54.75;101020.69;5081095;28;1291;-53
2023/08/09 02:30:03;;;;;;;;;;;;;;;16.76;54.26;101024.22;5099349;28;1059;-53
2023/08/09 02:32:29;;;;;;;;;;;;;;;16.70;54.16;101023.34;5098476;28;1066;-48
2023/08/09 02:34:54;;;;;;;;;;;;;;;16.68;53.92;101020.06;5090457;28;1185;-53
2023/08/09 02:37:22;;;;;;;;;;;;;;;16.59;53.96;101017.03;5098718;28;1135;-49
2023/08/09 02:39:47;;;;;;;;;;;;;;;16.89;54.81;101021.00;5098531;28;1972;-55
2023/08/09 02:42:13;;;;;;;;;;;;;;;17.49;54.62;101028.81;5098587;28;1126;-54
2023/08/09 02:44:38;;;;;;;;;;;;;;;17.06;54.92;101020.78;5098306;28;1069;-56
2023/08/09 02:47:05;;;;;;;;;;;;;;;16.90;54.63;101024.56;5098119;28;890;-57
2023/08/09 02:49:31;;;;;;;;;;;;;;;16.80;54.45;101025.31;5098624;28;1093;-54
2023/08/09 02:51:57;;;;;;;;;;;;;;;16.71;54.00;101022.28;5080605;28;1418;-50
2023/08/09 02:54:22;;;;;;;;;;;;;;;16.69;53.89;101016.25;5080451;28;1164;-54
2023/08/09 02:56:48;;;;;;;;;;;;;;;16.68;53.49;101028.31;5080280;28;1197;-53
2023/08/09 02:59:13;;;;;;;;;;;;;;;16.56;53.69;101030.44;5077016;28;1973;-55
2023/08/09 03:01:39;;;;;;;;;;;;;;;16.51;53.78;101030.41;5074917;28;1554;-56
2023/08/09 03:04:04;;;;;;;;;;;;;;;16.45;53.64;101031.47;5098517;28;1228;-54
2023/08/09 03:06:30;;;;;;;;;;;;;;;17.41;54.51;101037.63;5080311;28;1177;-52
2023/08/09 03:08:56;;;;;;;;;;;;;;;17.39;54.65;101035.13;5098327;28;1050;-58
2023/08/09 03:11:22;;;;;;;;;;;;;;;17.04;54.85;101036.72;5079576;28;1160;-53
2023/08/09 03:13:48;;;;;;;;;;;;;;;16.88;54.71;101037.72;5080317;28;1276;-57
2023/08/09 03:16:13;;;;;;;;;;;;;;;16.72;54.52;101045.09;5079817;28;1165;-52
2023/08/09 03:18:39;;;;;;;;;;;;;;;16.63;54.48;101050.25;5097882;28;1998;-50
2023/08/09 03:21:05;;;;;;;;;;;;;;;16.64;54.21;101051.09;5080010;28;1098;-54
2023/08/09 03:23:31;;;;;;;;;;;;;;;16.55;53.84;101048.00;5079104;28;1378;-52
2023/08/09 03:25:56;;;;;;;;;;;;;;;16.48;53.70;101051.00;5079934;28;1095;-50
2023/08/09 03:28:23;;;;;;;;;;;;;;;16.42;53.72;101050.16;5079695;28;1196;-52
2023/08/09 03:30:48;;;;;;;;;;;;;;;16.96;54.72;101050.97;5097847;28;1089;-54
2023/08/09 03:33:14;;;;;;;;;;;;;;;17.42;54.76;101053.81;5078907;28;1387;-54
2023/08/09 03:35:41;;;;;;;;;;;;;;;17.04;54.85;101061.44;5073445;28;1391;-56
2023/08/09 03:38:06;;;;;;;;;;;;;;;16.87;54.55;101060.78;5079459;28;1484;-50
2023/08/09 03:40:32;;;;;;;;;;;;;;;16.75;54.54;101061.84;5065606;28;1929;-51
2023/08/09 03:42:58;;;;;;;;;;;;;;;16.67;54.21;101062.34;5076954;28;1277;-48
2023/08/09 03:45:24;;;;;;;;;;;;;;;16.62;54.00;101065.09;5079248;28;1226;-47
2023/08/09 03:47:50;;;;;;;;;;;;;;;16.53;53.96;101061.19;5079080;28;1141;-49
2023/08/09 03:50:16;;;;;;;;;;;;;;;16.48;54.06;101063.88;5078937;28;1300;-55
2023/08/09 03:52:42;;;;;;;;;;;;;;;16.38;54.07;101065.50;5068906;28;1288;-57
2023/08/09 03:55:08;;;;;;;;;;;;;;;16.32;54.06;101069.28;5062066;28;1166;-57
2023/08/09 03:57:33;;;;;;;;;;;;;;;16.34;53.94;101069.84;5085884;28;1022;-57
2023/08/09 03:59:59;;;;;;;;;;;;;;;16.62;54.65;101069.72;5094088;28;1906;-58
2023/08/09 04:02:24;;;;;;;;;;;;;;;17.73;54.44;101078.59;5097498;28;1074;-58
2023/08/09 04:04:50;;;;;;;;;;;;;;;17.07;55.13;101082.06;5097086;28;1134;-57
2023/08/09 04:07:15;;;;;;;;;;;;;;;16.83;55.39;101082.47;5096997;28;1054;-57
2023/08/09 04:09:41;;;;;;;;;;;;;;;16.71;54.93;101085.44;5079551;28;1087;-57
2023/08/09 04:12:06;;;;;;;;;;;;;;;16.58;54.69;101080.44;5076790;28;902;-57
2023/08/09 04:14:32;;;;;;;;;;;;;;;16.53;54.72;101083.94;5081044;28;1063;-58
2023/08/09 04:16:57;;;;;;;;;;;;;;;16.50;54.58;101083.69;5069154;28;1299;-57
2023/08/09 04:19:24;;;;;;;;;;;;;;;16.43;54.26;101087.47;5082730;28;2008;-54
2023/08/09 04:21:50;;;;;;;;;;;;;;;16.42;54.23;101091.31;5063170;28;1217;-56
2023/08/09 04:24:16;;;;;;;;;;;;;;;16.38;54.10;101087.44;5085376;28;917;-56
2023/08/09 04:26:42;;;;;;;;;;;;;;;16.34;54.07;101093.72;5094076;28;1082;-56
2023/08/09 04:29:08;;;;;;;;;;;;;;;16.89;55.09;101092.41;5085594;28;1201;-56
2023/08/09 04:31:33;;;;;;;;;;;;;;;17.45;54.89;101094.50;5093863;28;1226;-57
2023/08/09 04:33:59;;;;;;;;;;;;;;;16.90;55.79;101106.97;5096251;28;1127;-60
2023/08/09 04:36:25;;;;;;;;;;;;;;;16.79;55.25;101106.06;5091048;28;979;-55
2023/08/09 04:38:51;;;;;;;;;;;;;;;16.65;55.13;101104.88;5087539;28;1906;-57
2023/08/09 04:41:16;;;;;;;;;;;;;;;16.62;54.88;101098.03;5079209;28;1137;-57
2023/08/09 04:43:43;;;;;;;;;;;;;;;16.55;54.92;101105.66;5076756;28;1194;-58
2023/08/09 04:46:10;;;;;;;;;;;;;;;16.55;54.38;101106.50;5076835;28;1046;-58
2023/08/09 04:48:37;;;;;;;;;;;;;;;17.83;53.54;101109.97;5069696;28;1181;-58
2023/08/09 04:51:02;;;;;;;;;;;;;;;16.89;53.60;101105.34;5082606;28;1030;-60
2023/08/09 04:53:28;;;;;;;;;;;;;;;16.66;52.11;101112.88;5096103;28;1017;-54
2023/08/09 04:55:53;;;;;;;;;;;;;;;17.28;53.36;101111.25;5094199;28;1046;-56
2023/08/09 04:58:19;;;;;;;;;;;;;;;16.73;52.74;101105.22;5087801;28;1199;-58
2023/08/09 05:00:44;;;;;;;;;;;;;;;16.65;51.22;101107.63;5068516;28;1915;-56
2023/08/09 05:03:10;;;;;;;;;;;;;;;17.40;52.69;101113.75;5088011;28;1054;-54
2023/08/09 05:05:36;;;;;;;;;;;;;;;16.92;51.66;101104.78;5081081;28;1031;-56
2023/08/09 05:08:01;;;;;;;;;;;;;;;16.86;50.39;101108.59;5081809;28;1209;-57
2023/08/09 05:10:27;;;;;;;;;;;;;;;17.71;51.83;101107.47;5092083;28;1166;-57
2023/08/09 05:12:52;;;;;;;;;;;;;;;17.29;51.71;101109.31;5086654;28;924;-57
2023/08/09 05:15:18;;;;;;;;;;;;;;;17.12;50.33;101115.03;5078668;28;1145;-55
2023/08/09 05:17:43;;;;;;;;;;;;;;;16.96;49.68;101119.66;5092018;28;1003;-58
2023/08/09 05:20:10;;;;;;;;;;;;;;;17.75;50.97;101117.69;5091314;28;1976;-58
2023/08/09 05:22:36;;;;;;;;;;;;;;;17.33;51.09;101121.41;5087576;28;1138;-53
2023/08/09 05:25:02;;;;;;;;;;;;;;;17.14;49.91;101120.25;5089544;28;1142;-52
2023/08/09 05:27:27;;;;;;;;;;;;;;;17.74;50.74;101120.69;5085209;28;1114;-52
2023/08/09 05:29:52;;;;;;;;;;;;;;;17.46;50.52;101122.84;5087814;28;1046;-53
2023/08/09 05:32:18;;;;;;;;;;;;;;;17.29;49.64;101123.06;5096409;28;1138;-53
2023/08/09 05:34:44;;;;;;;;;;;;;;;17.12;48.98;101116.97;5082001;28;1157;-54
2023/08/09 05:37:09;;;;;;;;;;;;;;;17.67;49.45;101120.97;5076356;28;1074;-56
2023/08/09 05:39:35;;;;;;;;;;;;;;;17.81;50.61;101117.66;5091478;28;1913;-57
2023/08/09 05:42:00;;;;;;;;;;;;;;;17.42;49.65;101125.31;5092736;28;1174;-60
2023/08/09 05:44:26;;;;;;;;;;;;;;;17.33;48.80;101135.16;5096006;28;1225;-58
2023/08/09 05:46:51;;;;;;;;;;;;;;;17.20;48.12;101131.00;5091207;28;1155;-59
2023/08/09 05:49:17;;;;;;;;;;;;;;;17.16;47.79;101129.06;5089644;28;1304;-59
2023/08/09 05:51:42;;;;;;;;;;;;;;;17.18;47.14;101130.47;5084504;28;1171;-57
2023/08/09 05:54:09;;;;;;;;;;;;;;;17.04;47.12;101127.38;5085403;28;1178;-56
2023/08/09 05:56:34;;;;;;;;;;;;;;;17.20;47.12;101131.00;5092101;28;1288;-58
2023/08/09 05:59:00;;;;;;;;;;;;;;;17.15;47.38;101132.91;5094724;28;1986;-59
2023/08/09 06:01:25;;;;;;;;;;;;;;;17.74;49.24;101138.03;5098917;28;1272;-58
2023/08/09 06:03:51;;;;;;;;;;;;;;;17.42;48.76;101130.81;5099142;28;1359;-57
2023/08/09 06:06:16;;;;;;;;;;;;;;;17.35;47.99;101129.38;5093507;28;1375;-55
2023/08/09 06:08:42;;;;;;;;;;;;;;;17.17;47.65;101119.75;5089748;28;1242;-61
2023/08/09 06:11:08;;;;;;;;;;;;;;;17.21;47.06;101127.16;5086696;28;1218;-58
2023/08/09 06:13:34;;;;;;;;;;;;;;;17.77;48.69;101122.91;5089089;28;1234;-57
2023/08/09 06:15:59;;;;;;;;;;;;;;;17.41;48.56;101126.41;5087660;28;1205;-57
2023/08/09 06:18:25;;;;;;;;;;;;;;;17.27;47.89;101119.75;5092853;28;1173;-56
2023/08/09 06:20:50;;;;;;;;;;;;;;;17.30;47.27;101127.47;5094292;28;1898;-55
2023/08/09 06:23:16;;;;;;;;;;;;;;;17.26;46.81;101124.44;5089797;28;1186;-56
2023/08/09 06:25:41;;;;;;;;;;;;;;;18.12;48.06;101129.56;5093702;28;1245;-58
2023/08/09 06:28:07;;;;;;;;;;;;;;;17.54;48.73;101125.03;5096724;28;1078;-53
2023/08/09 06:30:33;;;;;;;;;;;;;;;17.38;48.21;101129.69;5091816;28;1261;-55
2023/08/09 06:32:58;;;;;;;;;;;;;;;17.43;47.26;101118.72;5092610;28;1225;-56
2023/08/09 06:35:24;;;;;;;;;;;;;;;17.30;46.88;101123.91;5097263;28;1308;-58
2023/08/09 06:37:49;;;;;;;;;;;;;;;18.02;48.23;101121.28;5094510;28;1154;-57
2023/08/09 06:40:16;;;;;;;;;;;;;;;17.60;48.33;101125.91;5062876;28;1981;-59
2023/08/09 06:42:41;;;;;;;;;;;;;;;17.49;47.45;101124.22;5078173;28;1459;-54
2023/08/09 06:45:09;;;;;;;;;;;;;;;17.40;47.23;101118.41;5060887;28;1206;-60
2023/08/09 06:47:35;;;;;;;;;;;;;;;17.33;46.86;101120.59;5090811;28;1018;-55
2023/08/09 06:50:06;;;;;;;;;;;;;;;17.37;46.56;101117.03;5084739;28;1481;-53
2023/08/09 06:52:36;;;;;;;;;;;;;;;17.28;46.16;101114.00;5097976;28;1050;-55
2023/08/09 06:55:02;;;;;;;;;;;;;;;17.28;46.80;101116.75;5086140;28;1110;-55
2023/08/09 06:57:27;;;;;;;;;;;;;;;18.00;47.82;101104.25;5084030;28;1169;-56
2023/08/09 06:59:53;;;;;;;;;;;;;;;17.52;48.23;101105.25;5090902;28;1976;-56
2023/08/09 07:02:20;;;;;;;;;;;;;;;17.44;47.45;101109.34;5081215;28;1114;-56
2023/08/09 07:04:46;;;;;;;;;;;;;;;17.38;47.00;101099.44;5088585;28;1035;-56
2023/08/09 07:07:11;;;;;;;;;;;;;;;17.31;47.05;101104.38;5091078;28;1130;-57
2023/08/09 07:09:37;;;;;;;;;;;;;;;17.35;46.37;101102.75;5084662;28;1359;-54
2023/08/09 07:12:02;;;;;;;;;;;;;;;17.24;46.38;101092.81;5093357;28;1165;-56
2023/08/09 07:14:28;;;;;;;;;;;;;;;17.64;46.66;101105.00;5083702;28;1220;-55
2023/08/09 07:16:53;;;;;;;;;;;;;;;17.77;48.10;101111.91;5093306;28;1234;-56
2023/08/09 07:19:19;;;;;;;;;;;;;;;17.56;47.73;101103.63;5087380;28;1910;-57
2023/08/09 07:21:44;;;;;;;;;;;;;;;17.47;47.26;101094.25;5094091;28;1000;-54
2023/08/09 07:24:10;;;;;;;;;;;;;;;17.35;46.61;101097.25;5089891;28;1178;-53
2023/08/09 07:26:35;;;;;;;;;;;;;;;17.32;46.45;101100.53;5086577;28;1230;-56
2023/08/09 07:29:01;;;;;;;;;;;;;;;17.39;46.30;101100.25;5085105;28;1233;-57
2023/08/09 07:31:27;;;;;;;;;;;;;;;17.19;46.29;101101.03;5088301;28;1231;-56
2023/08/09 07:33:52;;;;;;;;;;;;;;;17.26;45.80;101104.34;5086038;28;1352;-55
2023/08/09 07:36:18;;;;;;;;;;;;;;;17.33;45.68;101099.44;5088069;28;1189;-60
2023/08/09 07:38:43;;;;;;;;;;;;;;;17.24;45.67;101092.81;5084108;28;1914;-57
2023/08/09 07:41:09;;;;;;;;;;;;;;;17.30;46.05;101093.66;5091122;28;1055;-57
2023/08/09 07:43:35;;;;;;;;;;;;;;;17.83;47.21;101098.97;5077538;28;1035;-57
2023/08/09 07:46:03;;;;;;;;;;;;;;;17.51;47.41;101097.28;5087812;28;998;-55
2023/08/09 07:48:29;;;;;;;;;;;;;;;17.46;46.85;101095.34;5090268;28;1290;-53
2023/08/09 07:50:55;;;;;;;;;;;;;;;17.37;46.46;101103.28;5081757;28;1510;-57
2023/08/09 07:53:21;;;;;;;;;;;;;;;17.26;46.28;101096.97;5086734;28;1155;-57
2023/08/09 07:55:46;;;;;;;;;;;;;;;17.28;46.01;101088.44;5088213;28;1178;-57
2023/08/09 07:58:12;;;;;;;;;;;;;;;18.05;46.81;101080.28;5093004;28;1319;-57
2023/08/09 08:00:37;;;;;;;;;;;;;;;17.54;47.55;101083.00;5087394;28;1905;-53
2023/08/09 08:03:03;;;;;;;;;;;;;;;17.47;46.99;101086.00;5096887;28;1079;-56
2023/08/09 08:05:29;;;;;;;;;;;;;;;18.14;47.38;101088.81;5091514;28;1033;-54
2023/08/09 08:07:55;;;;;;;;;;;;;;;17.88;47.88;101074.19;5084475;28;1201;-54
2023/08/09 08:10:20;;;;;;;;;;;;;;;17.60;47.86;101073.66;5090198;28;1166;-57
2023/08/09 08:12:48;;;;;;;;;;;;;;;17.55;47.10;101079.16;5088711;28;1154;-58
2023/08/09 08:15:14;;;;;;;;;;;;;;;17.46;46.74;101076.13;5097109;28;1007;-58
2023/08/09 08:17:39;;;;;;;;;;;;;;;17.44;46.30;101070.84;5096592;28;1202;-57
2023/08/09 08:20:15;;;;;;;;;;;;;;;17.37;46.32;101067.56;5076789;28;1906;-58
2023/08/09 08:22:41;;;;;;;;;;;;;;;17.36;46.05;101065.94;5075221;28;987;-57
2023/08/09 08:25:07;;;;;;;;;;;;;;;17.33;45.92;101063.69;5082856;28;1047;-58
2023/08/09 08:27:35;;;;;;;;;;;;;;;17.22;45.93;101065.63;5094821;28;1050;-57
2023/08/09 08:30:00;;;;;;;;;;;;;;;17.33;45.88;101062.88;5076301;28;1441;-57
2023/08/09 08:32:26;;;;;;;;;;;;;;;17.26;45.75;101047.50;5076346;28;1015;-57
2023/08/09 08:34:56;;;;;;;;;;;;;;;17.30;45.98;101061.50;5084155;28;1003;-57
2023/08/09 08:37:22;;;;;;;;;;;;;;;17.95;47.30;101052.81;5082673;28;1349;-55
2023/08/09 08:39:48;;;;;;;;;;;;;;;17.54;47.41;101050.00;5096310;28;1906;-55
2023/08/09 08:42:13;;;;;;;;;;;;;;;17.48;47.06;101048.34;5082765;28;1054;-56
2023/08/09 08:44:39;;;;;;;;;;;;;;;17.39;46.74;101046.13;5096356;28;1101;-55
2023/08/09 08:47:05;;;;;;;;;;;;;;;17.38;46.40;101047.22;5082414;28;1010;-55
2023/08/09 08:49:31;;;;;;;;;;;;;;;17.43;45.82;101035.41;5084584;28;1304;-56
2023/08/09 08:51:57;;;;;;;;;;;;;;;17.27;45.84;101026.31;5083189;28;1126;-56
2023/08/09 08:54:22;;;;;;;;;;;;;;;17.30;45.81;101023.03;5078100;28;1023;-63
2023/08/09 08:56:48;;;;;;;;;;;;;;;17.25;45.84;101026.59;5093396;28;1090;-61
2023/08/09 08:59:14;;;;;;;;;;;;;;;17.30;45.67;101025.75;5068563;28;1902;-60
2023/08/09 09:01:39;;;;;;;;;;;;;;;17.96;46.55;101037.91;5089987;28;2054;-62
2023/08/09 09:04:05;;;;;;;;;;;;;;;17.56;47.21;101028.56;5086304;28;1296;-57
2023/08/09 09:06:30;;;;;;;;;;;;;;;17.32;47.13;101018.09;5084225;28;1241;-61
2023/08/09 09:08:56;;;;;;;;;;;;;;;17.26;46.57;101016.41;5085775;28;1248;-61
2023/08/09 09:11:22;;;;;;;;;;;;;;;17.35;45.94;101017.53;5085600;28;1265;-61
2023/08/09 09:13:49;;;;;;;;;;;;;;;17.38;45.59;100999.69;5083698;28;1218;-62
2023/08/09 09:16:15;;;;;;;;;;;;;;;17.28;45.85;101003.25;5086085;28;1325;-61
2023/08/09 09:18:41;;;;;;;;;;;;;;;17.33;45.55;100997.72;5085861;28;1241;-58
2023/08/09 09:21:09;;;;;;;;;;;;;;;17.27;45.50;100988.66;5084771;28;1992;-60
2023/08/09 09:23:35;;;;;;;;;;;;;;;17.24;45.52;100991.97;5090471;28;1119;-61
2023/08/09 09:26:06;;;;;;;;;;;;;;;17.30;45.42;100964.50;5095575;28;1263;-65
2023/08/09 09:28:44;;;;;;;;;;;;;;;17.20;45.49;100987.28;5091274;28;1493;-59
2023/08/09 09:31:10;;;;;;;;;;;;;;;18.10;46.45;100977.63;5084231;28;2004;-62
2023/08/09 09:33:36;;;;;;;;;;;;;;;17.56;47.19;100979.06;5087108;28;1329;-63
2023/08/09 09:36:02;;;;;;;;;;;;;;;17.42;46.86;100974.09;5090478;28;1217;-60
2023/08/09 09:38:27;;;;;;;;;;;;;;;17.42;46.49;100973.28;5088473;28;1210;-59
2023/08/09 09:40:53;;;;;;;;;;;;;;;17.41;46.24;100977.13;5090338;28;1989;-61
2023/08/09 09:43:19;;;;;;;;;;;;;;;17.35;46.07;100970.81;5064070;28;1282;-59
2023/08/09 09:45:45;;;;;;;;;;;;;;;17.36;45.73;100985.38;5089667;28;1221;-59
2023/08/09 09:48:20;;;;;;;;;;;;;;;17.35;45.66;100983.72;5088123;28;1177;-58
2023/08/09 09:50:46;;;;;;;;;;;;;;;17.32;45.49;100968.63;5085840;28;1387;-58
2023/08/09 09:53:14;;;;;;;;;;;;;;;17.32;45.68;100962.28;5084807;28;1186;-59
2023/08/09 09:55:40;;;;;;;;;;;;;;;17.23;45.71;100968.31;5092403;28;1019;-59
2023/08/09 09:58:05;;;;;;;;;;;;;;;17.27;45.82;100954.84;5068207;28;1215;-59
2023/08/09 10:00:32;;;;;;;;;;;;;;;17.28;45.61;100962.00;5090338;28;1966;-59
2023/08/09 10:02:59;;;;;;;;;;;;;;;17.65;46.56;100960.91;5081425;28;1890;-59
2023/08/09 10:05:26;;;;;;;;;;;;;;;17.68;47.40;100949.34;5079016;28;992;-58
2023/08/09 10:07:52;;;;;;;;;;;;;;;17.48;47.02;100950.19;5092025;28;1122;-58
2023/08/09 10:10:17;;;;;;;;;;;;;;;17.52;46.44;100944.97;5068542;28;1046;-60
2023/08/09 10:12:44;;;;;;;;;;;;;;;17.35;46.43;100940.56;5099106;28;1165;-57
2023/08/09 10:15:13;;;;;;;;;;;;;;;17.40;46.11;100942.50;5068959;28;1492;-61
2023/08/09 10:17:39;;;;;;;;;;;;;;;17.37;46.06;100943.03;5089403;28;1245;-62
2023/08/09 10:20:05;;;;;;;;;;;;;;;17.28;46.19;100942.78;5089034;28;1961;-57
2023/08/09 10:22:31;;;;;;;;;;;;;;;17.33;45.89;100948.25;5072739;28;1147;-59
2023/08/09 10:24:57;;;;;;;;;;;;;;;17.32;45.82;100943.03;5088527;28;1198;-59
2023/08/09 10:27:41;;;;;;;;;;;;;;;17.35;45.74;100945.22;5088933;28;1314;-59
2023/08/09 10:30:09;;;;;;;;;;;;;;;17.24;45.80;100945.22;5089817;28;1163;-58
2023/08/09 10:32:47;;;;;;;;;;;;;;;17.27;45.49;100939.19;5089154;28;1213;-59
2023/08/09 10:35:16;;;;;;;;;;;;;;;17.24;45.94;100944.41;5087442;28;1207;-61
2023/08/09 10:37:43;;;;;;;;;;;;;;;17.23;45.58;100935.34;5087432;28;1174;-64
2023/08/09 10:40:12;;;;;;;;;;;;;;;17.19;45.79;100930.66;5088767;28;1902;-64
2023/08/09 10:42:37;;;;;;;;;;;;;;;17.29;45.48;100936.16;5098857;28;1370;-58
2023/08/09 10:45:03;;;;;;;;;;;;;;;17.30;45.66;100932.31;5092463;28;1324;-59
2023/08/09 10:47:28;;;;;;;;;;;;;;;17.25;45.68;100929.56;5089598;28;1292;-61
2023/08/09 10:49:54;;;;;;;;;;;;;;;17.16;45.71;100925.72;5069529;28;1551;-63
2023/08/09 10:52:33;;;;;;;;;;;;;;;17.18;45.86;100929.00;5069699;28;1268;-59
2023/08/09 10:55:18;;;;;;;;;;;;;;;18.04;46.63;100924.53;5068852;28;1291;-60
2023/08/09 10:57:43;;;;;;;;;;;;;;;17.50;47.29;100919.66;5073960;28;1162;-62
2023/08/09 11:00:12;;;;;;;;;;;;;;;17.42;46.73;100913.63;5067894;28;1894;-62
2023/08/09 11:02:47;;;;;;;;;;;;;;;17.39;46.47;100922.44;5071201;28;1224;-64
2023/08/09 11:05:13;;;;;;;;;;;;;;;17.30;46.26;100915.00;5077888;28;1348;-64
2023/08/09 11:07:44;;;;;;;;;;;;;;;17.37;46.19;100918.31;5077457;28;1303;-59
2023/08/09 11:10:12;;;;;;;;;;;;;;;17.36;45.77;100913.91;5066305;28;1273;-58
2023/08/09 11:12:37;;;;;;;;;;;;;;;17.24;45.93;100917.75;5070524;28;1185;-65
2023/08/09 11:15:05;;;;;;;;;;;;;;;17.33;45.65;100915.28;5067885;28;1261;-61
2023/08/09 11:17:31;;;;;;;;;;;;;;;17.41;46.19;100911.97;5067047;28;1221;-62
2023/08/09 11:19:56;;;;;;;;;;;;;;;17.79;47.58;100904.25;5067856;28;1946;-61
2023/08/09 11:22:22;;;;;;;;;;;;;;;17.57;47.17;100900.97;5070132;28;1261;-61
2023/08/09 11:24:48;;;;;;;;;;;;;;;17.48;46.70;100897.13;5077403;28;1298;-65
2023/08/09 11:27:13;;;;;;;;;;;;;;;18.16;47.38;100902.22;5064755;28;1315;-60
2023/08/09 11:29:39;;;;;;;;;;;;;;;17.79;47.83;100901.50;5077368;28;1061;-60
2023/08/09 11:32:05;;;;;;;;;;;;;;;17.61;47.57;100902.91;5077434;28;1319;-60
2023/08/09 11:34:30;;;;;;;;;;;;;;;17.65;46.87;100900.41;5077536;28;1401;-62
2023/08/09 11:36:56;;;;;;;;;;;;;;;17.49;46.58;100893.28;5077364;28;1417;-61
2023/08/09 11:39:22;;;;;;;;;;;;;;;17.42;46.61;100896.31;5077134;28;1901;-64
2023/08/09 11:41:50;;;;;;;;;;;;;;;17.47;46.05;100892.72;5075977;28;1405;-55
2023/08/09 11:44:17;;;;;;;;;;;;;;;17.54;45.63;100904.28;5076752;28;1101;-60
2023/08/09 11:46:46;;;;;;;;;;;;;;;17.45;45.81;100896.56;5067365;28;1351;-65
2023/08/09 11:49:11;;;;;;;;;;;;;;;17.50;45.37;100898.53;5082641;28;1188;-59
2023/08/09 11:51:37;;;;;;;;;;;;;;;17.37;45.59;100910.06;5096598;28;1110;-61
2023/08/09 11:54:02;;;;;;;;;;;;;;;17.41;45.74;100889.97;5083634;28;1276;-59
2023/08/09 11:56:31;;;;;;;;;;;;;;;17.32;45.83;100891.66;5097257;28;1173;-61
2023/08/09 11:58:58;;;;;;;;;;;;;;;17.36;45.57;100905.66;5087204;28;1909;-63
2023/08/09 12:01:24;;;;;;;;;;;;;;;17.36;45.65;100912.00;5092176;28;1166;-67
2023/08/09 12:03:53;;;;;;;;;;;;;;;17.35;45.48;100899.34;5096016;28;955;-59
2023/08/09 12:06:32;;;;;;;;;;;;;;;17.39;45.47;100900.44;5097278;28;1312;-62
2023/08/09 12:08:58;;;;;;;;;;;;;;;17.35;45.48;100895.75;5096845;28;1070;-59
2023/08/09 12:11:24;;;;;;;;;;;;;;;17.25;45.43;100891.94;5094276;28;1350;-60
2023/08/09 12:13:49;;;;;;;;;;;;;;;18.07;46.55;100890.97;5085278;28;1115;-59
2023/08/09 12:16:15;;;;;;;;;;;;;;;17.65;46.81;100894.91;5090784;28;1119;-58
2023/08/09 12:18:40;;;;;;;;;;;;;;;17.52;46.67;100890.00;5096802;28;1018;-62
2023/08/09 12:21:08;;;;;;;;;;;;;;;17.51;46.82;100900.16;5096155;28;1910;-64
2023/08/09 12:23:36;;;;;;;;;;;;;;;17.56;47.07;100899.34;5096458;28;1440;-62
2023/08/09 12:26:02;;;;;;;;;;;;;;;17.55;46.78;100898.50;5094719;28;1402;-65
2023/08/09 12:28:28;;;;;;;;;;;;;;;17.45;46.42;100891.06;5087498;28;1426;-62
2023/08/09 12:30:53;;;;;;;;;;;;;;;17.42;46.19;100897.13;5086754;28;1210;-61
2023/08/09 12:33:19;;;;;;;;;;;;;;;17.36;46.05;100892.75;5085088;28;1343;-62
2023/08/09 12:35:44;;;;;;;;;;;;;;;17.37;45.60;100897.13;5086879;28;1194;-64
2023/08/09 12:38:10;;;;;;;;;;;;;;;17.34;45.75;100889.44;5084028;28;1241;-63
2023/08/09 12:40:37;;;;;;;;;;;;;;;17.35;45.72;100893.84;5084453;28;1909;-61
2023/08/09 12:43:03;;;;;;;;;;;;;;;17.37;45.49;100888.88;5093193;28;1217;-62